Time;durP1;ratioP1;P1;durP2;ratioP2;P2;SDS_P1;SDS_P2;PMS_P1;PMS_P2;Temp;Humidity;BMP_temperature;BMP_pressure;BME280_temperature;BME280_humidity;BME280_pressure;Samples;Min_cycle;Max_cycle;Signal;HPM_P1;HPM_P2
2022/05/21 00:00:55;;;;;;;7.43;4.75;;;18.70;99.90;;;;;;5016815;28;20022;-75
2022/05/21 00:03:20;;;;;;;6.95;4.18;;;18.70;99.90;;;;;;5013535;28;20039;-74
2022/05/21 00:05:47;;;;;;;13.90;5.72;;;18.70;99.90;;;;;;5016027;28;20022;-74
2022/05/21 00:08:13;;;;;;;7.78;4.88;;;18.60;99.90;;;;;;5019155;28;20071;-74
2022/05/21 00:10:40;;;;;;;8.60;5.03;;;18.50;99.90;;;;;;5017847;28;20101;-74
2022/05/21 00:13:06;;;;;;;6.45;4.07;;;19.40;99.90;;;;;;5018959;28;20038;-74
2022/05/21 00:15:34;;;;;;;9.57;4.72;;;18.20;99.90;;;;;;5015800;28;20022;-74
2022/05/21 00:18:00;;;;;;;12.82;6.53;;;18.10;99.90;;;;;;5015955;28;20068;-74
2022/05/21 00:23:16;;;;;;;11.25;5.82;;;18.10;99.90;;;;;;5013997;28;20123;-74
2022/05/21 00:25:43;;;;;;;10.20;5.60;;;18.10;99.90;;;;;;5015078;28;20022;-74
2022/05/21 00:28:09;;;;;;;6.97;4.25;;;18.10;99.90;;;;;;5014786;28;20418;-74
2022/05/21 00:30:35;;;;;;;7.05;4.45;;;18.00;99.90;;;;;;5015505;28;20040;-74
2022/05/21 00:33:01;;;;;;;11.98;5.10;;;18.00;99.90;;;;;;5014866;28;20120;-74
2022/05/21 00:35:28;;;;;;;7.88;5.00;;;18.00;99.90;;;;;;5015119;28;20017;-74
2022/05/21 00:37:54;;;;;;;5.57;4.13;;;18.10;99.90;;;;;;5013056;28;20026;-74
2022/05/21 00:40:21;;;;;;;7.00;4.30;;;18.10;99.90;;;;;;5011804;28;20026;-75
2022/05/21 00:42:48;;;;;;;9.20;4.90;;;18.10;99.90;;;;;;5011984;28;20505;-74
2022/05/21 00:45:14;;;;;;;7.47;4.45;;;18.00;99.90;;;;;;5013604;28;20022;-74
2022/05/21 00:47:40;;;;;;;6.85;4.15;;;18.00;99.90;;;;;;5011981;28;20033;-74
2022/05/21 00:50:10;;;;;;;8.77;3.75;;;18.00;99.90;;;;;;5011025;28;20364;-74
2022/05/21 00:52:38;;;;;;;9.15;5.18;;;18.00;99.90;;;;;;5014712;28;20053;-74
2022/05/21 00:55:12;;;;;;;7.47;4.18;;;18.00;99.90;;;;;;5010378;28;20030;-75
2022/05/21 00:57:48;;;;;;;11.02;4.05;;;17.90;99.90;;;;;;5010840;28;20506;-74
2022/05/21 01:00:21;;;;;;;4.68;3.28;;;17.90;99.90;;;;;;5011477;28;20025;-74
2022/05/21 01:02:56;;;;;;;10.95;4.45;;;17.90;99.90;;;;;;5010212;28;20029;-74
2022/05/21 01:05:25;;;;;;;11.98;5.00;;;17.80;99.90;;;;;;5011689;28;20535;-74
2022/05/21 01:07:55;;;;;;;6.95;3.00;;;17.80;99.90;;;;;;5010207;28;20036;-76
2022/05/21 01:10:22;;;;;;;6.78;3.53;;;17.70;99.90;;;;;;5010230;28;20135;-75
2022/05/21 01:12:50;;;;;;;7.55;3.72;;;17.80;99.90;;;;;;5009843;28;20137;-75
2022/05/21 01:15:23;;;;;;;4.72;3.63;;;17.70;99.90;;;;;;5012414;28;20050;-74
2022/05/21 01:17:49;;;;;;;4.88;2.97;;;17.70;99.90;;;;;;5013987;28;21429;-74
2022/05/21 01:20:21;;;;;;;6.03;3.53;;;17.60;99.90;;;;;;5012156;28;20129;-75
2022/05/21 01:22:50;;;;;;;5.55;3.58;;;17.60;99.90;;;;;;5014107;28;20512;-74
2022/05/21 01:25:20;;;;;;;2.97;2.70;;;17.50;99.90;;;;;;5014922;28;20206;-74
2022/05/21 01:27:47;;;;;;;4.30;3.30;;;17.50;99.90;;;;;;5013493;28;20022;-74
2022/05/21 01:30:17;;;;;;;7.00;3.30;;;17.40;99.90;;;;;;5013163;28;20030;-74
2022/05/21 01:32:48;;;;;;;7.40;3.20;;;17.40;99.90;;;;;;5014620;28;20096;-74
2022/05/21 01:35:14;;;;;;;4.20;2.92;;;17.40;99.90;;;;;;5014153;28;20014;-74
2022/05/21 01:37:41;;;;;;;3.97;3.40;;;17.30;99.90;;;;;;5013908;28;20068;-74
2022/05/21 01:40:08;;;;;;;6.50;3.45;;;17.30;99.90;;;;;;5013249;28;20033;-74
2022/05/21 01:42:34;;;;;;;6.50;3.70;;;17.10;99.90;;;;;;5011437;28;20065;-74
2022/05/21 01:45:00;;;;;;;6.88;3.38;;;17.30;99.90;;;;;;5013199;28;20022;-74
2022/05/21 01:47:29;;;;;;;4.03;2.90;;;17.20;99.90;;;;;;5013073;28;20117;-74
2022/05/21 01:49:54;;;;;;;3.83;3.05;;;17.30;99.90;;;;;;5014035;28;20532;-74
2022/05/21 01:52:20;;;;;;;5.03;3.22;;;17.20;99.90;;;;;;5013024;28;20112;-74
2022/05/21 01:54:46;;;;;;;4.35;2.47;;;17.10;99.90;;;;;;5011596;28;20033;-74
2022/05/21 01:57:12;;;;;;;3.35;2.10;;;17.10;99.90;;;;;;5012521;28;20645;-74
2022/05/21 01:59:39;;;;;;;3.03;2.60;;;17.10;99.90;;;;;;5012606;28;20045;-75
2022/05/21 02:02:06;;;;;;;2.72;2.25;;;16.90;99.90;;;;;;5011482;28;20414;-74
2022/05/21 02:04:32;;;;;;;7.35;2.65;;;16.90;99.90;;;;;;5012796;28;20367;-74
2022/05/21 02:06:59;;;;;;;4.20;2.22;;;16.80;99.90;;;;;;5012184;28;20029;-75
2022/05/21 02:09:25;;;;;;;4.25;2.92;;;16.80;99.90;;;;;;5014010;28;20029;-75
2022/05/21 02:11:51;;;;;;;3.78;2.20;;;16.80;99.90;;;;;;5012957;28;20044;-74
2022/05/21 02:14:17;;;;;;;3.45;2.60;;;16.70;99.90;;;;;;5015519;28;20022;-74
2022/05/21 02:16:42;;;;;;;3.03;2.20;;;16.70;99.90;;;;;;5014960;28;20037;-76
2022/05/21 02:19:09;;;;;;;3.58;2.28;;;16.70;99.90;;;;;;5014419;28;20070;-75
2022/05/21 02:21:37;;;;;;;2.88;2.10;;;16.60;99.90;;;;;;5013484;28;20390;-77
2022/05/21 02:24:04;;;;;;;6.57;2.00;;;16.60;99.90;;;;;;5013973;28;20030;-75
2022/05/21 02:26:34;;;;;;;2.70;1.67;;;16.60;99.90;;;;;;5013815;28;20061;-82
2022/05/21 02:29:00;;;;;;;3.55;3.13;;;16.60;99.90;;;;;;5014157;28;20022;-75
2022/05/21 02:31:26;;;;;;;3.58;2.63;;;16.60;99.90;;;;;;5013449;28;20030;-79
2022/05/21 02:33:52;;;;;;;3.38;2.55;;;16.60;99.90;;;;;;5013385;28;20387;-80
2022/05/21 02:39:25;;;;;;;6.70;3.30;;;16.60;99.90;;;;;;5013462;28;20026;-75
2022/05/21 02:41:47;;;;;;;4.30;2.33;;;16.50;99.90;;;;;;5011974;28;20080;-74
2022/05/21 02:44:14;;;;;;;4.93;2.63;;;16.50;99.90;;;;;;5013483;28;20026;-76
2022/05/21 02:46:40;;;;;;;2.17;1.83;;;16.50;99.90;;;;;;5012526;28;20442;-76
2022/05/21 02:49:05;;;;;;;2.75;2.47;;;16.40;99.90;;;;;;5013491;28;20026;-77
2022/05/21 02:51:31;;;;;;;3.33;2.17;;;16.40;99.90;;;;;;5013813;28;20080;-78
2022/05/21 02:53:57;;;;;;;3.15;2.70;;;16.30;99.90;;;;;;5012652;28;20033;-76
2022/05/21 02:56:23;;;;;;;3.85;2.50;;;16.20;99.90;;;;;;5013297;28;20474;-76
2022/05/21 02:58:48;;;;;;;2.85;2.30;;;16.10;99.90;;;;;;5010671;28;20030;-76
2022/05/21 03:01:14;;;;;;;3.08;2.78;;;16.10;99.90;;;;;;5011869;28;20029;-76
2022/05/21 03:03:40;;;;;;;5.05;3.47;;;16.10;99.90;;;;;;5016251;28;20034;-74
2022/05/21 03:06:06;;;;;;;6.75;3.15;;;16.00;99.90;;;;;;5015217;28;20513;-75
2022/05/21 03:11:15;;;;;;;3.58;2.58;;;15.90;99.90;;;;;;5017103;28;20745;-81
2022/05/21 03:13:41;;;;;;;7.30;3.28;;;15.80;99.90;;;;;;5016321;28;20120;-76
2022/05/21 03:16:07;;;;;;;2.60;2.40;;;15.70;99.90;;;;;;5016314;28;20029;-76
2022/05/21 03:18:34;;;;;;;3.72;2.45;;;15.60;99.90;;;;;;5012834;28;20046;-73
2022/05/21 03:21:00;;;;;;;2.83;2.38;;;15.60;99.90;;;;;;5013058;28;20317;-75
2022/05/21 03:23:25;;;;;;;2.92;2.53;;;15.60;99.90;;;;;;5014343;28;20178;-74
2022/05/21 03:25:52;;;;;;;4.50;2.58;;;15.50;99.90;;;;;;5013624;28;20069;-75
2022/05/21 03:28:19;;;;;;;3.65;2.88;;;15.50;99.90;;;;;;5033486;28;20034;-74
2022/05/21 03:30:45;;;;;;;2.35;2.15;;;15.50;99.90;;;;;;5015414;28;20065;-74
2022/05/21 03:33:11;;;;;;;2.75;2.30;;;15.40;99.90;;;;;;5014586;28;20034;-76
2022/05/21 03:35:37;;;;;;;4.00;2.70;;;15.40;99.90;;;;;;5016051;28;20054;-77
2022/05/21 03:38:04;;;;;;;3.17;2.50;;;15.40;99.90;;;;;;5015779;28;20501;-79
2022/05/21 03:40:31;;;;;;;4.70;2.47;;;15.40;99.90;;;;;;5017805;28;20030;-81
2022/05/21 03:42:57;;;;;;;2.97;2.75;;;;;;;;;;5023356;28;20029;-80
2022/05/21 03:45:24;;;;;;;2.85;2.38;;;;;;;;;;5023092;28;20022;-77
2022/05/21 03:47:51;;;;;;;5.03;2.90;;;15.30;99.90;;;;;;5021983;28;20049;-80
2022/05/21 03:50:21;;;;;;;3.08;2.78;;;15.30;99.90;;;;;;5019241;28;20030;-75
2022/05/21 03:52:47;;;;;;;3.42;2.50;;;15.30;99.90;;;;;;5018521;28;20030;-76
2022/05/21 03:55:13;;;;;;;3.40;3.05;;;15.20;99.90;;;;;;5019589;28;20041;-77
2022/05/21 03:57:39;;;;;;;4.38;2.95;;;15.20;99.90;;;;;;5015083;28;20030;-79
2022/05/21 04:00:08;;;;;;;4.78;3.08;;;15.20;99.90;;;;;;5011714;28;20088;-74
2022/05/21 04:02:36;;;;;;;6.22;3.03;;;15.10;99.90;;;;;;5011377;28;20041;-78
2022/05/21 04:05:03;;;;;;;4.47;2.78;;;15.00;99.90;;;;;;5019669;28;20062;-80
2022/05/21 04:07:29;;;;;;;5.55;3.17;;;14.90;99.90;;;;;;5016801;28;20050;-81
2022/05/21 04:09:54;;;;;;;4.43;3.40;;;15.00;99.90;;;;;;5013960;28;20060;-75
2022/05/21 04:12:20;;;;;;;4.18;3.78;;;14.90;99.90;;;;;;5012833;28;20065;-77
2022/05/21 04:14:46;;;;;;;4.60;3.17;;;14.90;99.90;;;;;;5011335;28;20470;-74
2022/05/21 04:17:13;;;;;;;5.47;3.38;;;14.90;99.90;;;;;;5012033;28;20033;-73
2022/05/21 04:19:40;;;;;;;5.25;2.78;;;14.80;99.90;;;;;;5012013;28;20475;-75
2022/05/21 04:22:06;;;;;;;6.82;4.40;;;14.80;99.90;;;;;;5011916;28;20040;-74
2022/05/21 04:24:32;;;;;;;4.80;3.72;;;14.80;99.90;;;;;;5012450;28;20021;-75
2022/05/21 04:26:58;;;;;;;6.07;3.20;;;14.80;99.90;;;;;;5010914;28;20030;-74
2022/05/21 04:29:24;;;;;;;7.05;3.80;;;14.80;99.90;;;;;;5010752;28;20442;-74
2022/05/21 04:31:49;;;;;;;5.55;3.92;;;14.90;99.90;;;;;;5010226;28;20037;-74
2022/05/21 04:34:15;;;;;;;4.43;3.40;;;15.00;99.90;;;;;;5011844;28;20037;-74
2022/05/21 04:36:41;;;;;;;4.78;3.33;;;15.10;99.90;;;;;;5011841;28;20049;-74
2022/05/21 04:39:07;;;;;;;5.07;3.25;;;15.20;99.90;;;;;;5011647;28;20100;-74
2022/05/21 04:41:33;;;;;;;2.65;2.45;;;15.20;99.90;;;;;;5012035;28;20026;-75
2022/05/21 04:44:00;;;;;;;3.80;2.80;;;15.40;99.90;;;;;;5011633;28;20026;-76
2022/05/21 04:46:25;;;;;;;5.10;3.20;;;15.60;99.90;;;;;;5011564;28;20022;-74
2022/05/21 04:48:51;;;;;;;3.38;3.08;;;15.80;99.90;;;;;;5010223;28;20030;-74
2022/05/21 04:51:18;;;;;;;6.45;3.17;;;15.80;99.90;;;;;;5009624;28;20080;-75
2022/05/21 04:53:43;;;;;;;4.35;3.40;;;15.80;99.90;;;;;;5011844;28;20061;-74
2022/05/21 04:56:09;;;;;;;3.50;3.00;;;15.70;99.90;;;;;;5013627;28;20022;-75
2022/05/21 04:58:35;;;;;;;3.40;3.10;;;15.70;99.90;;;;;;5013017;28;20037;-75
2022/05/21 05:01:02;;;;;;;4.28;3.90;;;15.70;99.90;;;;;;5011495;28;20052;-74
2022/05/21 05:03:28;;;;;;;4.55;3.13;;;15.80;99.90;;;;;;5011237;28;20030;-76
2022/05/21 05:05:54;;;;;;;15.52;3.53;;;15.90;99.90;;;;;;5011330;28;20396;-79
2022/05/21 05:08:21;;;;;;;3.65;3.08;;;16.10;99.90;;;;;;5011466;28;20018;-74
2022/05/21 05:10:47;;;;;;;6.35;2.78;;;16.20;99.90;;;;;;5011395;28;20100;-74
2022/05/21 05:13:13;;;;;;;5.13;2.58;;;16.20;99.90;;;;;;5010973;28;20514;-75
2022/05/21 05:15:39;;;;;;;3.00;2.70;;;16.20;99.90;;;;;;5010005;28;20022;-75
2022/05/21 05:18:11;;;;;;;3.53;2.67;;;16.00;99.90;;;;;;5012450;28;20033;-74
2022/05/21 05:20:37;;;;;;;4.07;2.75;;;16.00;99.90;;;;;;5011321;28;20541;-74
2022/05/21 05:23:05;;;;;;;2.95;2.63;;;16.10;99.90;;;;;;5011263;28;20033;-74
2022/05/21 05:25:31;;;;;;;2.55;2.35;;;16.40;99.90;;;;;;5009623;28;20379;-74
2022/05/21 05:27:58;;;;;;;4.35;2.50;;;16.60;99.90;;;;;;5009685;28;20041;-74
2022/05/21 05:30:24;;;;;;;2.35;2.20;;;16.80;99.90;;;;;;5010875;28;20026;-74
2022/05/21 05:32:50;;;;;;;7.35;3.05;;;17.00;99.90;;;;;;5010459;28;20061;-74
2022/05/21 05:35:16;;;;;;;2.72;1.80;;;17.20;99.90;;;;;;5010546;28;20026;-75
2022/05/21 05:37:42;;;;;;;2.22;2.13;;;17.20;99.90;;;;;;5010781;28;20029;-75
2022/05/21 05:40:12;;;;;;;3.30;1.92;;;17.20;99.90;;;;;;5010909;28;20022;-74
2022/05/21 05:42:39;;;;;;;2.92;2.30;;;17.30;99.90;;;;;;5010884;28;20022;-76
2022/05/21 05:45:08;;;;;;;2.15;1.95;;;17.00;99.90;;;;;;5015935;28;20018;-76
2022/05/21 05:47:33;;;;;;;3.28;1.95;;;16.70;99.90;;;;;;5018071;28;20026;-78
2022/05/21 05:50:00;;;;;;;2.63;1.90;;;16.70;99.90;;;;;;5023282;28;20040;-78
2022/05/21 05:52:26;;;;;;;2.60;1.70;;;16.60;99.90;;;;;;5024267;28;20049;-78
2022/05/21 05:54:53;;;;;;;2.20;1.70;;;16.70;99.90;;;;;;5026764;28;20060;-78
2022/05/21 05:57:18;;;;;;;5.10;1.90;;;16.40;99.90;;;;;;5024059;28;20024;-79
2022/05/21 05:59:50;;;;;;;3.20;2.03;;;16.50;99.90;;;;;;5022283;28;20018;-79
2022/05/21 06:05:11;;;;;;;5.72;2.85;;;16.40;99.90;;;;;;5022872;28;20029;-78
2022/05/21 06:07:41;;;;;;;;;;;16.60;99.90;;;;;;5011527;28;20026;-75
2022/05/21 06:10:07;;;;;;;4.72;1.80;;;16.80;99.90;;;;;;5009746;28;19916;-78
2022/05/21 06:12:33;;;;;;;1.48;1.38;;;17.00;99.90;;;;;;5023124;28;20077;-80
2022/05/21 06:14:59;;;;;;;6.07;1.73;;;16.90;99.90;;;;;;5013897;28;20022;-76
2022/05/21 06:17:25;;;;;;;1.95;1.52;;;17.00;99.90;;;;;;5020179;28;20084;-76
2022/05/21 06:19:52;;;;;;;2.70;2.50;;;17.10;99.90;;;;;;5010673;28;20057;-76
2022/05/21 06:22:18;;;;;;;1.42;1.33;;;17.30;99.90;;;;;;5013148;28;20121;-75
2022/05/21 06:24:43;;;;;;;1.45;1.08;;;17.30;99.90;;;;;;5015794;28;20023;-76
2022/05/21 06:27:09;;;;;;;2.20;1.20;;;17.10;99.90;;;;;;5013190;28;20026;-75
2022/05/21 06:29:37;;;;;;;4.18;1.40;;;17.10;99.90;;;;;;5014530;28;20398;-77
2022/05/21 06:32:04;;;;;;;0.82;0.82;;;17.20;99.90;;;;;;5011227;28;20037;-74
2022/05/21 06:34:31;;;;;;;1.08;0.98;;;17.50;99.90;;;;;;5012771;28;20018;-80
2022/05/21 06:37:01;;;;;;;0.98;0.63;;;17.30;99.90;;;;;;5009001;28;20026;-79
2022/05/21 06:39:27;;;;;;;1.50;1.13;;;17.60;99.90;;;;;;5010085;28;20032;-75
2022/05/21 06:41:53;;;;;;;1.17;0.73;;;17.80;99.90;;;;;;5009898;28;20126;-78
2022/05/21 06:44:18;;;;;;;0.75;0.75;;;18.10;99.90;;;;;;5010017;28;20026;-76
2022/05/21 06:46:44;;;;;;;0.75;0.75;;;18.40;99.90;;;;;;5008236;28;20026;-74
2022/05/21 06:49:09;;;;;;;0.77;0.77;;;18.40;99.90;;;;;;5008494;28;20026;-74
2022/05/21 06:51:35;;;;;;;1.30;1.20;;;19.00;99.90;;;;;;5008496;28;20022;-75
2022/05/21 06:54:01;;;;;;;2.20;0.60;;;19.50;99.90;;;;;;5009779;28;20038;-75
2022/05/21 06:56:27;;;;;;;1.65;0.77;;;19.40;99.90;;;;;;5009827;28;20106;-74
2022/05/21 06:58:52;;;;;;;2.75;0.75;;;19.60;99.90;;;;;;5009730;28;20080;-74
2022/05/21 07:01:18;;;;;;;0.65;0.60;;;20.10;99.90;;;;;;5009424;28;20034;-74
2022/05/21 07:03:43;;;;;;;1.63;1.23;;;19.80;99.90;;;;;;5008550;28;20058;-74
2022/05/21 07:08:53;;;;;;;2.10;1.30;;;20.20;99.90;;;;;;5010214;28;20096;-74
2022/05/21 07:11:19;;;;;;;1.25;0.80;;;20.30;99.90;;;;;;5008372;28;20471;-75
2022/05/21 07:13:45;;;;;;;1.20;1.10;;;20.50;99.90;;;;;;5010822;28;20041;-75
2022/05/21 07:16:11;;;;;;;0.65;0.65;;;20.70;99.90;;;;;;5013235;28;20195;-74
2022/05/21 07:18:37;;;;;;;2.15;1.00;;;21.90;99.90;;;;;;5013357;28;20228;-74
2022/05/21 07:21:03;;;;;;;0.70;0.60;;;21.80;99.90;;;;;;5012807;28;20026;-74
2022/05/21 07:23:29;;;;;;;1.75;0.70;;;20.90;99.90;;;;;;5011591;28;20026;-74
2022/05/21 07:25:55;;;;;;;0.80;0.80;;;21.60;99.90;;;;;;5011758;28;20148;-74
2022/05/21 07:28:21;;;;;;;1.00;0.80;;;21.80;99.90;;;;;;5011755;28;20030;-75
2022/05/21 07:30:48;;;;;;;2.33;1.00;;;21.20;99.90;;;;;;5013330;28;20026;-75
2022/05/21 07:33:16;;;;;;;0.90;0.75;;;21.20;99.90;;;;;;5012547;28;20032;-74
2022/05/21 07:35:43;;;;;;;1.55;0.80;;;20.70;99.90;;;;;;5011598;28;20060;-82
2022/05/21 07:38:11;;;;;;;0.88;0.70;;;20.20;99.90;;;;;;5013107;28;20085;-84
2022/05/21 07:40:38;;;;;;;0.82;0.50;;;20.70;99.90;;;;;;5012700;28;20069;-76
2022/05/21 07:43:20;;;;;;;1.33;1.13;;;21.50;99.90;;;;;;5011538;28;20474;-75
2022/05/21 07:45:47;;;;;;;1.33;0.80;;;22.60;77.50;;;;;;5012983;28;20415;-74
2022/05/21 07:48:17;;;;;;;1.35;0.60;;;23.50;90.20;;;;;;5008092;28;20382;-81
2022/05/21 07:50:49;;;;;;;0.70;0.70;;;23.60;68.40;;;;;;4992131;28;20033;-84
2022/05/21 07:53:17;;;;;;;2.47;0.60;;;23.20;73.40;;;;;;4992915;28;20057;-84
2022/05/21 07:55:44;;;;;;;2.35;1.10;;;22.50;72.60;;;;;;4993328;28;20027;-79
2022/05/21 07:58:11;;;;;;;1.52;0.70;;;22.20;93.80;;;;;;4993153;28;20034;-84
2022/05/21 08:00:37;;;;;;;0.82;0.60;;;22.50;98.20;;;;;;4993331;28;20026;-76
2022/05/21 08:03:04;;;;;;;1.63;0.85;;;22.30;90.90;;;;;;4992638;28;20210;-75
2022/05/21 08:05:29;;;;;;;2.33;1.38;;;21.50;94.30;;;;;;4993012;28;20068;-75
2022/05/21 08:07:56;;;;;;;1.00;0.90;;;21.50;99.90;;;;;;4993325;28;20026;-74
2022/05/21 08:10:23;;;;;;;1.30;0.82;;;22.40;99.90;;;;;;4992912;28;20027;-75
2022/05/21 08:12:50;;;;;;;0.63;0.57;;;23.00;90.70;;;;;;4991562;28;20505;-85
2022/05/21 08:15:17;;;;;;;1.65;0.85;;;23.40;97.90;;;;;;4991376;28;20455;-78
2022/05/21 08:17:43;;;;;;;0.90;0.77;;;23.40;91.60;;;;;;4992381;28;20054;-84
2022/05/21 08:20:11;;;;;;;3.83;1.00;;;24.10;79.40;;;;;;4991435;28;20097;-80
2022/05/21 08:28:07;;;;;;;0.63;0.63;;;23.20;75.50;;;;;;4992699;28;20041;-78
2022/05/21 08:30:33;;;;;;;2.83;1.00;;;23.60;74.40;;;;;;4992567;28;20022;-77
2022/05/21 08:33:08;;;;;;;1.17;1.08;;;22.80;86.50;;;;;;4992256;28;20571;-76
2022/05/21 08:35:35;;;;;;;1.58;1.00;;;22.50;84.30;;;;;;4992477;28;20019;-76
2022/05/21 08:38:01;;;;;;;1.35;1.25;;;22.30;92.40;;;;;;4992155;28;20034;-76
2022/05/21 08:40:35;;;;;;;0.90;0.90;;;21.80;95.40;;;;;;4992566;28;20478;-77
2022/05/21 08:43:05;;;;;;;0.90;0.90;;;21.50;99.90;;;;;;4992483;28;20040;-77
2022/05/21 08:45:48;;;;;;;1.65;1.42;;;22.00;96.80;;;;;;4994705;28;20030;-78
2022/05/21 08:48:16;;;;;;;4.05;1.35;;;22.60;86.80;;;;;;4992245;28;20298;-76
2022/05/21 08:50:46;;;;;;;6.47;2.00;;;21.90;92.80;;;;;;4992295;28;20038;-77
2022/05/21 08:53:17;;;;;;;1.25;0.90;;;22.00;95.40;;;;;;4994696;28;20125;-77
2022/05/21 08:55:52;;;;;;;1.33;0.95;;;21.10;99.90;;;;;;4999474;28;20379;-79
2022/05/21 08:58:29;;;;;;;1.35;1.25;;;20.80;99.90;;;;;;5002471;28;20226;-78
2022/05/21 09:00:55;;;;;;;2.08;1.00;;;21.00;99.90;;;;;;5000153;28;20037;-77
2022/05/21 09:03:25;;;;;;;1.00;1.00;;;21.40;99.90;;;;;;4990180;28;20022;-77
2022/05/21 09:06:06;;;;;;;1.13;1.00;;;21.80;98.30;;;;;;4990481;28;20026;-90
2022/05/21 09:09:07;;;;;;;1.25;1.15;;;21.70;96.20;;;;;;4990259;28;20031;-77
2022/05/21 09:11:57;;;;;;;0.85;0.85;;;21.80;94.40;;;;;;4956495;28;20133;-77
2022/05/21 09:14:42;;;;;;;2.03;1.05;;;21.90;99.90;;;;;;5011394;28;20100;-78
2022/05/21 09:17:14;;;;;;;1.13;0.90;;;22.10;99.80;;;;;;5011225;28;20038;-77
2022/05/21 09:19:50;;;;;;;2.75;0.80;;;22.30;95.10;;;;;;5026037;28;20112;-76
2022/05/21 09:22:20;;;;;;;2.78;0.90;;;22.50;97.40;;;;;;5011076;28;20036;-75
2022/05/21 09:24:55;;;;;;;1.10;1.10;;;22.30;77.50;;;;;;5010956;28;20026;-76
2022/05/21 09:27:33;;;;;;;1.55;0.98;;;22.60;97.10;;;;;;5010497;28;20022;-75
2022/05/21 09:30:21;;;;;;;2.10;1.40;;;22.70;77.00;;;;;;5010722;28;20042;-74
2022/05/21 09:32:52;;;;;;;2.45;1.05;;;22.20;96.30;;;;;;5012842;28;20081;-75
2022/05/21 09:35:20;;;;;;;2.50;1.20;;;22.40;99.90;;;;;;5009135;28;20041;-75
2022/05/21 09:37:46;;;;;;;1.05;0.88;;;22.90;82.10;;;;;;5009848;28;20030;-75
2022/05/21 09:40:23;;;;;;;1.58;0.82;;;23.00;82.60;;;;;;5008606;28;20120;-76
2022/05/21 09:45:36;;;;;;;1.02;0.93;;;22.70;72.80;;;;;;5009194;28;20033;-81
2022/05/21 09:48:05;;;;;;;;;;;22.90;67.60;;;;;;5007881;28;20565;-80
2022/05/21 09:50:42;;;;;;;0.93;0.93;;;23.10;68.40;;;;;;5009011;28;20293;-79
2022/05/21 09:53:23;;;;;;;1.48;1.00;;;22.80;75.20;;;;;;5009655;28;20038;-79
2022/05/21 09:56:43;;;;;;;2.38;0.68;;;22.00;90.70;;;;;;5009501;28;20060;-80
2022/05/21 09:59:18;;;;;;;0.98;0.90;;;22.00;92.00;;;;;;5004220;28;20510;-77
2022/05/21 10:01:59;;;;;;;3.63;1.02;;;22.30;77.30;;;;;;5007032;28;20128;-77
2022/05/21 10:04:43;;;;;;;5.13;1.00;;;22.80;84.70;;;;;;4999193;28;20013;-78
2022/05/21 10:13:14;;;;;;;0.90;0.80;;;22.60;70.50;;;;;;5006752;28;20056;-79
2022/05/21 10:15:50;;;;;;;4.63;1.00;;;22.80;67.70;;;;;;5005555;28;20065;-78
2022/05/21 10:18:40;;;;;;;2.65;1.30;;;22.80;88.00;;;;;;5006594;28;20068;-79
2022/05/21 10:21:31;;;;;;;1.38;1.10;;;22.10;68.10;;;;;;5007677;28;20049;-78
2022/05/21 10:24:13;;;;;;;1.33;1.23;;;23.00;68.60;;;;;;5004473;28;20398;-78
2022/05/21 10:27:24;;;;;;;0.98;0.98;;;23.00;69.70;;;;;;5006280;28;20034;-78
2022/05/21 10:30:03;;;;;;;2.63;1.00;;;22.40;70.40;;;;;;4981955;28;20508;-78
2022/05/21 10:32:56;;;;;;;0.85;0.85;;;22.50;72.30;;;;;;5007087;28;20056;-77
2022/05/21 10:35:56;;;;;;;1.70;0.93;;;22.20;88.80;;;;;;5003995;28;20026;-76
2022/05/21 10:38:41;;;;;;;0.98;0.75;;;19.30;70.70;;;;;;5005009;28;20129;-79
2022/05/21 10:41:28;;;;;;;0.70;0.65;;;24.10;82.30;;;;;;5009932;28;20262;-79
2022/05/21 10:44:21;;;;;;;2.53;0.80;;;23.40;75.10;;;;;;5008295;28;20021;-77
2022/05/21 10:47:03;;;;;;;2.10;1.10;;;23.00;67.40;;;;;;5009527;28;20483;-81
2022/05/21 10:49:35;;;;;;;0.80;0.60;;;23.10;65.60;;;;;;5009165;28;20033;-81
2022/05/21 10:52:07;;;;;;;0.98;0.90;;;23.50;65.90;;;;;;5008368;28;20026;-78
2022/05/21 10:55:04;;;;;;;1.02;0.80;;;23.20;63.80;;;;;;5008362;28;20665;-84
2022/05/21 10:58:05;;;;;;;4.45;0.80;;;23.20;60.10;;;;;;5006632;28;20645;-81
2022/05/21 11:00:54;;;;;;;0.60;0.60;;;22.90;63.20;;;;;;5007483;28;20032;-84
2022/05/21 11:03:28;;;;;;;2.40;0.82;;;23.40;65.90;;;;;;5004555;28;20022;-81
2022/05/21 11:06:27;;;;;;;1.17;0.70;;;23.60;62.70;;;;;;5006626;28;20033;-79
2022/05/21 11:08:53;;;;;;;2.38;0.68;;;23.10;63.00;;;;;;5005842;28;20026;-79
2022/05/21 11:11:37;;;;;;;3.13;0.80;;;23.40;63.50;;;;;;5004348;28;20037;-80
2022/05/21 11:14:40;;;;;;;0.70;0.70;;;23.70;62.60;;;;;;5004180;28;20452;-81
2022/05/21 11:17:30;;;;;;;0.40;0.40;;;24.30;60.80;;;;;;5004290;28;20030;-80
2022/05/21 11:20:20;;;;;;;0.50;0.50;;;24.60;60.70;;;;;;5006628;28;20158;-78
2022/05/21 11:23:20;;;;;;;0.50;0.50;;;24.80;62.40;;;;;;5005205;28;20121;-79
2022/05/21 11:25:51;;;;;;;0.40;0.40;;;24.50;60.50;;;;;;5007331;28;20084;-79
2022/05/21 11:28:29;;;;;;;3.85;0.52;;;24.70;59.20;;;;;;5009620;28;20026;-80
2022/05/21 11:30:58;;;;;;;1.10;0.57;;;24.80;61.50;;;;;;5008068;28;20057;-79
2022/05/21 11:39:07;;;;;;;0.70;0.70;;;24.50;59.40;;;;;;5000508;28;20038;-78
2022/05/21 11:41:58;;;;;;;0.83;0.83;;;24.80;60.00;;;;;;5008100;28;20095;-79
2022/05/21 11:44:58;;;;;;;0.55;0.43;;;24.40;58.80;;;;;;5008092;28;20061;-79
2022/05/21 11:47:24;;;;;;;0.57;0.57;;;25.30;59.20;;;;;;5007970;28;20034;-79
2022/05/21 11:49:55;;;;;;;0.40;0.40;;;26.00;59.20;;;;;;5008825;28;20032;-79
2022/05/21 11:52:27;;;;;;;0.40;0.40;;;25.70;56.90;;;;;;5009081;28;20096;-79
2022/05/21 11:55:09;;;;;;;1.45;0.40;;;25.20;56.70;;;;;;5007989;28;20525;-79
2022/05/21 11:57:43;;;;;;;1.10;0.50;;;;;;;;;;5009368;28;20018;-73
2022/05/21 12:00:29;;;;;;;2.58;0.50;;;25.10;59.00;;;;;;5011882;28;20446;-82
2022/05/21 12:02:54;;;;;;;1.05;0.50;;;24.60;57.40;;;;;;5012455;28;20026;-79
2022/05/21 12:05:38;;;;;;;0.70;0.63;;;25.20;55.80;;;;;;5012534;28;20437;-76
2022/05/21 12:08:13;;;;;;;2.92;0.47;;;;;;;;;;5011012;28;20037;-77
2022/05/21 12:11:04;;;;;;;1.88;0.60;;;26.10;53.70;;;;;;5012855;28;20033;-76
2022/05/21 12:13:33;;;;;;;0.40;0.40;;;26.30;52.70;;;;;;5011030;28;20045;-77
2022/05/21 12:16:16;;;;;;;2.05;0.32;;;26.70;54.00;;;;;;5012465;28;20034;-77
2022/05/21 12:18:59;;;;;;;0.88;0.50;;;27.70;53.80;;;;;;5010725;28;20053;-77
2022/05/21 12:21:32;;;;;;;0.75;0.50;;;28.40;52.70;;;;;;5012490;28;20022;-76
2022/05/21 12:24:08;;;;;;;0.50;0.28;;;28.00;53.10;;;;;;5012189;28;20018;-76
2022/05/21 12:26:44;;;;;;;0.40;0.40;;;28.60;50.60;;;;;;5010783;28;20215;-77
2022/05/21 12:29:17;;;;;;;0.82;0.40;;;28.80;50.40;;;;;;5011991;28;20490;-79
2022/05/21 12:31:52;;;;;;;0.30;0.30;;;28.30;52.50;;;;;;5012059;28;20049;-76
2022/05/21 12:34:43;;;;;;;0.43;0.43;;;27.90;53.00;;;;;;5010502;28;20474;-77
2022/05/21 12:37:13;;;;;;;0.80;0.80;;;;;;;;;;5012128;28;20060;-76
2022/05/21 12:39:50;;;;;;;1.13;0.57;;;28.10;52.40;;;;;;5012055;28;20083;-76
2022/05/21 12:42:39;;;;;;;0.50;0.50;;;27.50;53.40;;;;;;5010501;28;20064;-81
2022/05/21 12:45:06;;;;;;;0.40;0.40;;;27.30;53.90;;;;;;5010384;28;20022;-76
2022/05/21 12:47:39;;;;;;;0.70;0.40;;;26.40;55.00;;;;;;5010386;28;20064;-76
2022/05/21 12:50:18;;;;;;;1.40;0.52;;;27.60;56.90;;;;;;5011554;28;20014;-76
2022/05/21 12:52:55;;;;;;;1.30;0.45;;;27.80;53.50;;;;;;5010270;28;20038;-76
2022/05/21 12:55:33;;;;;;;1.58;0.88;;;27.70;52.80;;;;;;5011647;28;20022;-76
2022/05/21 12:58:17;;;;;;;2.03;0.50;;;27.70;53.20;;;;;;5011702;28;20265;-80
2022/05/21 13:00:51;;;;;;;1.15;0.52;;;27.20;54.70;;;;;;5011586;28;20054;-78
2022/05/21 13:03:19;;;;;;;0.90;0.80;;;26.80;55.70;;;;;;5010206;28;20478;-80
2022/05/21 13:05:50;;;;;;;0.63;0.60;;;27.70;54.90;;;;;;5011888;28;20455;-77
2022/05/21 13:08:16;;;;;;;3.13;1.35;;;27.80;54.90;;;;;;5010302;28;20057;-83
2022/05/21 13:11:10;;;;;;;0.73;0.73;;;26.90;53.70;;;;;;5010952;28;20074;-86
2022/05/21 13:13:39;;;;;;;0.50;0.50;;;27.30;54.10;;;;;;5010835;28;20046;-78
2022/05/21 13:16:07;;;;;;;0.85;0.80;;;27.50;54.80;;;;;;5011384;28;20018;-81
2022/05/21 13:18:59;;;;;;;0.85;0.80;;;28.30;53.80;;;;;;5010928;28;20518;-87
2022/05/21 13:21:43;;;;;;;1.38;0.80;;;28.10;53.50;;;;;;5010037;28;20057;-76
2022/05/21 13:24:45;;;;;;;0.80;0.80;;;27.80;53.80;;;;;;5009644;28;20391;-77
2022/05/21 13:27:16;;;;;;;1.10;0.95;;;28.70;53.40;;;;;;4999614;28;20100;-79
2022/05/21 13:29:42;;;;;;;;;;;27.80;52.00;;;;;;5010246;28;20032;-77
2022/05/21 13:32:29;;;;;;;3.45;0.95;;;28.50;52.70;;;;;;5009632;28;20008;-83
2022/05/21 13:35:01;;;;;;;0.65;0.65;;;28.40;53.30;;;;;;5009574;28;20022;-77
2022/05/21 13:37:41;;;;;;;0.68;0.68;;;29.30;52.90;;;;;;5011030;28;20021;-76
2022/05/21 13:40:14;;;;;;;0.57;0.57;;;29.20;51.70;;;;;;5009611;28;20025;-76
2022/05/21 13:42:43;;;;;;;1.13;0.70;;;29.40;52.40;;;;;;5010864;28;20029;-78